sensor_id;sensor_type;location;lat;lon;timestamp;temperature;humidity
24103;DHT22;12278;53.058;9.028;2023-12-29T00:00:31;10.90;99.90
24103;DHT22;12278;53.058;9.028;2023-12-29T00:04:31;10.90;99.90
24103;DHT22;12278;53.058;9.028;2023-12-29T00:08:32;10.90;99.90
24103;DHT22;12278;53.058;9.028;2023-12-29T00:12:33;11.00;99.90
24103;DHT22;12278;53.058;9.028;2023-12-29T00:16:33;11.00;99.90
24103;DHT22;12278;53.058;9.028;2023-12-29T00:20:34;10.90;99.90
24103;DHT22;12278;53.058;9.028;2023-12-29T00:24:34;10.90;99.90
24103;DHT22;12278;53.058;9.028;2023-12-29T00:28:36;10.80;99.90
24103;DHT22;12278;53.058;9.028;2023-12-29T00:32:40;10.80;99.90
24103;DHT22;12278;53.058;9.028;2023-12-29T00:36:41;10.80;99.90
24103;DHT22;12278;53.058;9.028;2023-12-29T00:40:41;10.70;99.90
24103;DHT22;12278;53.058;9.028;2023-12-29T00:44:42;10.70;99.90
24103;DHT22;12278;53.058;9.028;2023-12-29T00:48:42;10.70;99.90
24103;DHT22;12278;53.058;9.028;2023-12-29T00:52:43;10.60;99.90
24103;DHT22;12278;53.058;9.028;2023-12-29T00:56:50;10.60;99.90
24103;DHT22;12278;53.058;9.028;2023-12-29T01:00:50;10.50;99.90
24103;DHT22;12278;53.058;9.028;2023-12-29T01:04:51;10.50;99.90
24103;DHT22;12278;53.058;9.028;2023-12-29T01:08:51;10.60;99.90
24103;DHT22;12278;53.058;9.028;2023-12-29T01:12:52;10.60;99.90
24103;DHT22;12278;53.058;9.028;2023-12-29T01:16:52;10.60;99.90
24103;DHT22;12278;53.058;9.028;2023-12-29T01:20:53;10.60;99.90
24103;DHT22;12278;53.058;9.028;2023-12-29T01:24:53;10.60;99.90
24103;DHT22;12278;53.058;9.028;2023-12-29T01:28:54;10.60;99.90
24103;DHT22;12278;53.058;9.028;2023-12-29T01:32:54;10.60;99.90
24103;DHT22;12278;53.058;9.028;2023-12-29T01:36:55;10.50;99.90
24103;DHT22;12278;53.058;9.028;2023-12-29T01:40:55;10.40;99.90
24103;DHT22;12278;53.058;9.028;2023-12-29T01:44:56;10.30;99.90
24103;DHT22;12278;53.058;9.028;2023-12-29T01:48:57;10.30;99.90
24103;DHT22;12278;53.058;9.028;2023-12-29T01:52:58;10.30;99.90
24103;DHT22;12278;53.058;9.028;2023-12-29T01:57:00;10.30;99.90
24103;DHT22;12278;53.058;9.028;2023-12-29T02:01:01;10.20;99.90
24103;DHT22;12278;53.058;9.028;2023-12-29T02:05:02;10.00;99.90
24103;DHT22;12278;53.058;9.028;2023-12-29T02:09:03;9.90;99.90
24103;DHT22;12278;53.058;9.028;2023-12-29T02:13:04;9.80;99.90
24103;DHT22;12278;53.058;9.028;2023-12-29T02:21:06;9.70;99.90
24103;DHT22;12278;53.058;9.028;2023-12-29T02:25:07;9.80;99.90
24103;DHT22;12278;53.058;9.028;2023-12-29T02:29:07;9.80;99.90
24103;DHT22;12278;53.058;9.028;2023-12-29T02:33:13;9.80;99.90
24103;DHT22;12278;53.058;9.028;2023-12-29T02:37:14;9.80;99.90
24103;DHT22;12278;53.058;9.028;2023-12-29T02:41:15;9.80;99.90
24103;DHT22;12278;53.058;9.028;2023-12-29T02:45:16;9.80;99.90
24103;DHT22;12278;53.058;9.028;2023-12-29T02:49:16;9.70;99.90
24103;DHT22;12278;53.058;9.028;2023-12-29T02:53:17;9.60;99.90
24103;DHT22;12278;53.058;9.028;2023-12-29T02:57:17;9.60;99.90
24103;DHT22;12278;53.058;9.028;2023-12-29T03:01:18;9.50;99.90
24103;DHT22;12278;53.058;9.028;2023-12-29T03:05:18;9.40;99.90
24103;DHT22;12278;53.058;9.028;2023-12-29T03:09:19;9.40;99.90
24103;DHT22;12278;53.058;9.028;2023-12-29T03:13:20;9.40;99.90
24103;DHT22;12278;53.058;9.028;2023-12-29T03:17:20;9.50;99.90
24103;DHT22;12278;53.058;9.028;2023-12-29T03:21:21;9.50;99.90
24103;DHT22;12278;53.058;9.028;2023-12-29T03:25:21;9.60;99.90
24103;DHT22;12278;53.058;9.028;2023-12-29T03:29:21;9.50;99.90
24103;DHT22;12278;53.058;9.028;2023-12-29T03:33:22;9.40;99.90
24103;DHT22;12278;53.058;9.028;2023-12-29T03:37:22;9.40;99.90
24103;DHT22;12278;53.058;9.028;2023-12-29T03:41:23;9.40;99.90
24103;DHT22;12278;53.058;9.028;2023-12-29T03:45:24;9.50;99.90
24103;DHT22;12278;53.058;9.028;2023-12-29T03:49:24;9.50;99.90
24103;DHT22;12278;53.058;9.028;2023-12-29T03:53:25;9.60;99.90
24103;DHT22;12278;53.058;9.028;2023-12-29T03:57:25;9.80;99.90
24103;DHT22;12278;53.058;9.028;2023-12-29T04:01:26;9.80;99.90
24103;DHT22;12278;53.058;9.028;2023-12-29T04:05:27;9.90;99.90
24103;DHT22;12278;53.058;9.028;2023-12-29T04:09:28;9.90;99.90
24103;DHT22;12278;53.058;9.028;2023-12-29T04:13:29;8.80;99.90
24103;DHT22;12278;53.058;9.028;2023-12-29T04:17:29;8.40;99.90
24103;DHT22;12278;53.058;9.028;2023-12-29T04:21:30;8.00;99.90
24103;DHT22;12278;53.058;9.028;2023-12-29T04:25:30;7.90;99.90
24103;DHT22;12278;53.058;9.028;2023-12-29T04:29:31;7.90;99.90
24103;DHT22;12278;53.058;9.028;2023-12-29T04:33:31;7.80;99.90
24103;DHT22;12278;53.058;9.028;2023-12-29T04:37:32;8.00;99.90
24103;DHT22;12278;53.058;9.028;2023-12-29T04:41:32;8.10;99.90
24103;DHT22;12278;53.058;9.028;2023-12-29T04:45:33;8.10;99.90
24103;DHT22;12278;53.058;9.028;2023-12-29T04:49:34;8.70;99.90
24103;DHT22;12278;53.058;9.028;2023-12-29T04:53:34;9.60;99.90
24103;DHT22;12278;53.058;9.028;2023-12-29T04:57:35;10.00;99.90
24103;DHT22;12278;53.058;9.028;2023-12-29T05:01:35;10.10;99.90
24103;DHT22;12278;53.058;9.028;2023-12-29T05:05:36;10.10;99.90
24103;DHT22;12278;53.058;9.028;2023-12-29T05:09:37;10.20;99.90
24103;DHT22;12278;53.058;9.028;2023-12-29T05:13:38;10.20;99.90
24103;DHT22;12278;53.058;9.028;2023-12-29T05:17:38;10.20;99.90
24103;DHT22;12278;53.058;9.028;2023-12-29T05:21:39;10.20;99.90
24103;DHT22;12278;53.058;9.028;2023-12-29T05:25:40;10.10;99.90
24103;DHT22;12278;53.058;9.028;2023-12-29T05:29:41;9.80;99.90
24103;DHT22;12278;53.058;9.028;2023-12-29T05:33:42;9.70;99.90
24103;DHT22;12278;53.058;9.028;2023-12-29T05:37:43;9.70;99.90
24103;DHT22;12278;53.058;9.028;2023-12-29T05:41:43;9.80;99.90
24103;DHT22;12278;53.058;9.028;2023-12-29T05:45:44;9.80;99.90
24103;DHT22;12278;53.058;9.028;2023-12-29T05:49:44;9.90;99.90
24103;DHT22;12278;53.058;9.028;2023-12-29T05:53:45;9.90;99.90
24103;DHT22;12278;53.058;9.028;2023-12-29T05:57:46;9.90;99.90
24103;DHT22;12278;53.058;9.028;2023-12-29T06:01:46;9.90;99.90
24103;DHT22;12278;53.058;9.028;2023-12-29T06:05:47;10.00;99.90
24103;DHT22;12278;53.058;9.028;2023-12-29T06:09:48;10.00;99.90
24103;DHT22;12278;53.058;9.028;2023-12-29T06:13:49;10.10;99.90
24103;DHT22;12278;53.058;9.028;2023-12-29T06:17:50;10.10;99.90
24103;DHT22;12278;53.058;9.028;2023-12-29T06:21:50;10.10;99.90
24103;DHT22;12278;53.058;9.028;2023-12-29T06:25:51;10.10;99.90
24103;DHT22;12278;53.058;9.028;2023-12-29T06:29:52;9.90;99.90
24103;DHT22;12278;53.058;9.028;2023-12-29T06:33:52;9.80;99.90
24103;DHT22;12278;53.058;9.028;2023-12-29T06:37:53;9.70;99.90
24103;DHT22;12278;53.058;9.028;2023-12-29T06:41:54;9.80;99.90
24103;DHT22;12278;53.058;9.028;2023-12-29T06:45:54;9.80;99.90
24103;DHT22;12278;53.058;9.028;2023-12-29T06:49:55;9.80;99.90
24103;DHT22;12278;53.058;9.028;2023-12-29T06:53:57;9.80;99.90
24103;DHT22;12278;53.058;9.028;2023-12-29T06:57:58;9.80;99.90
24103;DHT22;12278;53.058;9.028;2023-12-29T07:01:59;9.80;99.90
24103;DHT22;12278;53.058;9.028;2023-12-29T07:06:03;10.00;99.90
24103;DHT22;12278;53.058;9.028;2023-12-29T07:10:04;9.90;99.90
24103;DHT22;12278;53.058;9.028;2023-12-29T07:14:06;9.90;99.90
24103;DHT22;12278;53.058;9.028;2023-12-29T07:18:07;9.90;99.90
24103;DHT22;12278;53.058;9.028;2023-12-29T07:22:07;9.90;99.90
24103;DHT22;12278;53.058;9.028;2023-12-29T07:26:08;9.80;99.90
24103;DHT22;12278;53.058;9.028;2023-12-29T07:30:09;9.80;99.90
24103;DHT22;12278;53.058;9.028;2023-12-29T07:34:10;9.80;99.90
24103;DHT22;12278;53.058;9.028;2023-12-29T07:38:10;9.80;99.90
24103;DHT22;12278;53.058;9.028;2023-12-29T07:42:11;9.70;99.90
24103;DHT22;12278;53.058;9.028;2023-12-29T07:46:12;9.80;99.90
24103;DHT22;12278;53.058;9.028;2023-12-29T07:50:12;9.80;99.90
24103;DHT22;12278;53.058;9.028;2023-12-29T07:54:13;9.90;99.90
24103;DHT22;12278;53.058;9.028;2023-12-29T07:58:14;9.80;99.90
24103;DHT22;12278;53.058;9.028;2023-12-29T08:02:14;9.90;99.90
24103;DHT22;12278;53.058;9.028;2023-12-29T08:06:15;9.80;99.90
24103;DHT22;12278;53.058;9.028;2023-12-29T08:10:16;9.90;99.90
24103;DHT22;12278;53.058;9.028;2023-12-29T08:14:16;9.90;99.90
24103;DHT22;12278;53.058;9.028;2023-12-29T08:18:17;9.90;99.90
24103;DHT22;12278;53.058;9.028;2023-12-29T08:22:19;9.90;99.90
24103;DHT22;12278;53.058;9.028;2023-12-29T08:26:20;9.80;99.90
24103;DHT22;12278;53.058;9.028;2023-12-29T08:30:20;9.80;99.90
24103;DHT22;12278;53.058;9.028;2023-12-29T08:34:21;9.80;99.90
24103;DHT22;12278;53.058;9.028;2023-12-29T08:38:22;9.70;99.90
24103;DHT22;12278;53.058;9.028;2023-12-29T08:42:22;9.80;99.90
24103;DHT22;12278;53.058;9.028;2023-12-29T08:46:23;9.80;99.90
24103;DHT22;12278;53.058;9.028;2023-12-29T08:50:24;9.70;99.90
24103;DHT22;12278;53.058;9.028;2023-12-29T08:54:25;9.70;99.90
24103;DHT22;12278;53.058;9.028;2023-12-29T08:58:26;9.40;99.90
24103;DHT22;12278;53.058;9.028;2023-12-29T09:02:26;8.90;99.90
24103;DHT22;12278;53.058;9.028;2023-12-29T09:06:27;8.60;99.90
24103;DHT22;12278;53.058;9.028;2023-12-29T09:10:28;8.30;99.90
24103;DHT22;12278;53.058;9.028;2023-12-29T09:14:28;7.80;99.90
24103;DHT22;12278;53.058;9.028;2023-12-29T09:18:31;7.40;99.90
24103;DHT22;12278;53.058;9.028;2023-12-29T09:22:32;7.40;99.90
24103;DHT22;12278;53.058;9.028;2023-12-29T09:26:32;7.60;99.90
24103;DHT22;12278;53.058;9.028;2023-12-29T09:30:34;7.60;99.90
24103;DHT22;12278;53.058;9.028;2023-12-29T09:34:34;7.70;99.90
24103;DHT22;12278;53.058;9.028;2023-12-29T09:38:35;7.80;99.90
24103;DHT22;12278;53.058;9.028;2023-12-29T09:42:37;7.90;99.90
24103;DHT22;12278;53.058;9.028;2023-12-29T09:46:38;7.90;99.90
24103;DHT22;12278;53.058;9.028;2023-12-29T09:50:42;7.90;99.90
24103;DHT22;12278;53.058;9.028;2023-12-29T09:54:44;8.00;99.90
24103;DHT22;12278;53.058;9.028;2023-12-29T09:58:47;8.20;99.90
24103;DHT22;12278;53.058;9.028;2023-12-29T10:02:51;8.40;99.90
24103;DHT22;12278;53.058;9.028;2023-12-29T10:06:54;8.60;99.90
24103;DHT22;12278;53.058;9.028;2023-12-29T10:10:58;8.70;99.90
24103;DHT22;12278;53.058;9.028;2023-12-29T10:19:10;9.10;99.90
24103;DHT22;12278;53.058;9.028;2023-12-29T10:27:27;9.20;99.90
24103;DHT22;12278;53.058;9.028;2023-12-29T10:31:28;9.10;99.90
24103;DHT22;12278;53.058;9.028;2023-12-29T10:35:29;9.00;99.90
24103;DHT22;12278;53.058;9.028;2023-12-29T10:39:30;8.90;99.90
24103;DHT22;12278;53.058;9.028;2023-12-29T10:43:31;8.70;99.90
24103;DHT22;12278;53.058;9.028;2023-12-29T10:47:32;7.70;99.90
24103;DHT22;12278;53.058;9.028;2023-12-29T10:51:32;7.60;99.90
24103;DHT22;12278;53.058;9.028;2023-12-29T10:55:33;7.50;99.90
24103;DHT22;12278;53.058;9.028;2023-12-29T10:59:34;7.50;99.90
24103;DHT22;12278;53.058;9.028;2023-12-29T11:03:37;7.50;99.90
24103;DHT22;12278;53.058;9.028;2023-12-29T11:07:40;7.50;99.90
24103;DHT22;12278;53.058;9.028;2023-12-29T11:11:41;7.50;99.90
24103;DHT22;12278;53.058;9.028;2023-12-29T11:15:44;7.80;99.90
24103;DHT22;12278;53.058;9.028;2023-12-29T11:19:46;7.70;99.90
24103;DHT22;12278;53.058;9.028;2023-12-29T11:23:49;7.70;99.90
24103;DHT22;12278;53.058;9.028;2023-12-29T11:27:50;7.70;99.90
24103;DHT22;12278;53.058;9.028;2023-12-29T11:31:53;7.80;99.90
24103;DHT22;12278;53.058;9.028;2023-12-29T11:36:00;7.80;99.90
24103;DHT22;12278;53.058;9.028;2023-12-29T11:40:25;8.00;99.90
24103;DHT22;12278;53.058;9.028;2023-12-29T11:44:28;8.10;99.90
24103;DHT22;12278;53.058;9.028;2023-12-29T11:48:58;8.30;99.90
24103;DHT22;12278;53.058;9.028;2023-12-29T11:53:02;8.60;99.90
24103;DHT22;12278;53.058;9.028;2023-12-29T11:57:02;8.80;99.90
24103;DHT22;12278;53.058;9.028;2023-12-29T12:01:03;8.80;99.90
24103;DHT22;12278;53.058;9.028;2023-12-29T12:05:04;8.80;99.90
24103;DHT22;12278;53.058;9.028;2023-12-29T12:09:16;8.80;99.90
24103;DHT22;12278;53.058;9.028;2023-12-29T12:13:46;8.60;99.90
24103;DHT22;12278;53.058;9.028;2023-12-29T12:17:50;8.50;99.90
24103;DHT22;12278;53.058;9.028;2023-12-29T12:21:53;8.60;99.90
24103;DHT22;12278;53.058;9.028;2023-12-29T12:25:57;8.50;99.90
24103;DHT22;12278;53.058;9.028;2023-12-29T12:30:00;8.50;99.90
24103;DHT22;12278;53.058;9.028;2023-12-29T12:34:01;8.40;99.90
24103;DHT22;12278;53.058;9.028;2023-12-29T12:38:08;8.30;99.90
24103;DHT22;12278;53.058;9.028;2023-12-29T12:42:13;8.30;99.90
24103;DHT22;12278;53.058;9.028;2023-12-29T12:46:14;8.50;99.90
24103;DHT22;12278;53.058;9.028;2023-12-29T12:50:15;8.70;99.90
24103;DHT22;12278;53.058;9.028;2023-12-29T12:54:19;8.60;99.90
24103;DHT22;12278;53.058;9.028;2023-12-29T12:58:20;8.80;99.90
24103;DHT22;12278;53.058;9.028;2023-12-29T13:02:21;8.90;99.90
24103;DHT22;12278;53.058;9.028;2023-12-29T13:06:23;8.90;99.90
24103;DHT22;12278;53.058;9.028;2023-12-29T13:10:23;9.00;99.90
24103;DHT22;12278;53.058;9.028;2023-12-29T13:14:24;9.00;99.90
24103;DHT22;12278;53.058;9.028;2023-12-29T13:18:29;9.10;99.90
24103;DHT22;12278;53.058;9.028;2023-12-29T13:22:32;9.00;99.90
24103;DHT22;12278;53.058;9.028;2023-12-29T13:26:32;9.00;99.90
24103;DHT22;12278;53.058;9.028;2023-12-29T13:30:34;9.00;99.90
24103;DHT22;12278;53.058;9.028;2023-12-29T13:35:11;9.00;99.90
24103;DHT22;12278;53.058;9.028;2023-12-29T13:39:37;9.00;99.90
24103;DHT22;12278;53.058;9.028;2023-12-29T13:43:41;9.10;99.90
24103;DHT22;12278;53.058;9.028;2023-12-29T13:47:43;9.30;99.90
24103;DHT22;12278;53.058;9.028;2023-12-29T13:51:44;9.20;99.90
24103;DHT22;12278;53.058;9.028;2023-12-29T13:55:45;9.10;99.90
24103;DHT22;12278;53.058;9.028;2023-12-29T13:59:46;9.00;99.90
24103;DHT22;12278;53.058;9.028;2023-12-29T14:03:59;8.90;99.90
24103;DHT22;12278;53.058;9.028;2023-12-29T14:08:08;8.80;99.90
24103;DHT22;12278;53.058;9.028;2023-12-29T14:12:10;8.80;99.90
24103;DHT22;12278;53.058;9.028;2023-12-29T14:16:11;8.70;99.90
24103;DHT22;12278;53.058;9.028;2023-12-29T14:20:32;8.70;99.90
24103;DHT22;12278;53.058;9.028;2023-12-29T14:24:34;8.80;99.90
24103;DHT22;12278;53.058;9.028;2023-12-29T14:28:35;8.70;99.90
24103;DHT22;12278;53.058;9.028;2023-12-29T14:32:35;8.70;99.90
24103;DHT22;12278;53.058;9.028;2023-12-29T14:36:37;8.80;99.90
24103;DHT22;12278;53.058;9.028;2023-12-29T14:40:38;8.80;99.90
24103;DHT22;12278;53.058;9.028;2023-12-29T14:44:39;8.90;99.90
24103;DHT22;12278;53.058;9.028;2023-12-29T14:48:39;8.80;99.90
24103;DHT22;12278;53.058;9.028;2023-12-29T14:52:40;9.00;99.90
24103;DHT22;12278;53.058;9.028;2023-12-29T14:56:41;9.00;99.90
24103;DHT22;12278;53.058;9.028;2023-12-29T15:00:44;9.00;99.90
24103;DHT22;12278;53.058;9.028;2023-12-29T15:04:46;9.10;99.90
24103;DHT22;12278;53.058;9.028;2023-12-29T15:08:49;9.00;99.90
24103;DHT22;12278;53.058;9.028;2023-12-29T15:12:50;9.00;99.90
24103;DHT22;12278;53.058;9.028;2023-12-29T15:16:50;9.10;99.90
24103;DHT22;12278;53.058;9.028;2023-12-29T15:20:51;9.10;99.90
24103;DHT22;12278;53.058;9.028;2023-12-29T15:24:52;9.10;99.90
24103;DHT22;12278;53.058;9.028;2023-12-29T15:28:53;9.10;99.90
24103;DHT22;12278;53.058;9.028;2023-12-29T15:32:55;9.10;99.90
24103;DHT22;12278;53.058;9.028;2023-12-29T15:36:56;9.20;99.90
24103;DHT22;12278;53.058;9.028;2023-12-29T15:40:56;9.20;99.90
24103;DHT22;12278;53.058;9.028;2023-12-29T15:44:57;9.10;99.90
24103;DHT22;12278;53.058;9.028;2023-12-29T15:48:58;9.10;99.90
24103;DHT22;12278;53.058;9.028;2023-12-29T15:53:01;9.10;99.90
24103;DHT22;12278;53.058;9.028;2023-12-29T15:57:02;9.00;99.90
24103;DHT22;12278;53.058;9.028;2023-12-29T16:01:08;9.00;99.90
24103;DHT22;12278;53.058;9.028;2023-12-29T16:05:08;8.90;99.90
24103;DHT22;12278;53.058;9.028;2023-12-29T16:09:09;9.00;99.90
24103;DHT22;12278;53.058;9.028;2023-12-29T16:13:10;9.00;99.90
24103;DHT22;12278;53.058;9.028;2023-12-29T16:17:10;9.00;99.90
24103;DHT22;12278;53.058;9.028;2023-12-29T16:21:12;9.00;99.90
24103;DHT22;12278;53.058;9.028;2023-12-29T16:25:13;9.10;99.90
24103;DHT22;12278;53.058;9.028;2023-12-29T16:29:14;9.00;99.90
24103;DHT22;12278;53.058;9.028;2023-12-29T16:33:15;9.00;99.90
24103;DHT22;12278;53.058;9.028;2023-12-29T16:37:15;8.90;99.90
24103;DHT22;12278;53.058;9.028;2023-12-29T16:41:17;9.00;99.90
24103;DHT22;12278;53.058;9.028;2023-12-29T16:45:18;8.90;99.90
24103;DHT22;12278;53.058;9.028;2023-12-29T16:49:18;8.90;99.90
24103;DHT22;12278;53.058;9.028;2023-12-29T16:53:19;8.70;99.90
24103;DHT22;12278;53.058;9.028;2023-12-29T16:57:21;8.60;99.90
24103;DHT22;12278;53.058;9.028;2023-12-29T17:01:21;8.70;99.90
24103;DHT22;12278;53.058;9.028;2023-12-29T17:05:23;8.60;99.90
24103;DHT22;12278;53.058;9.028;2023-12-29T17:09:23;8.60;99.90
24103;DHT22;12278;53.058;9.028;2023-12-29T17:13:24;8.70;99.90
24103;DHT22;12278;53.058;9.028;2023-12-29T17:17:25;8.70;99.90
24103;DHT22;12278;53.058;9.028;2023-12-29T17:21:25;8.80;99.90
24103;DHT22;12278;53.058;9.028;2023-12-29T17:25:26;8.90;99.90
24103;DHT22;12278;53.058;9.028;2023-12-29T17:29:26;8.90;99.90
24103;DHT22;12278;53.058;9.028;2023-12-29T17:33:27;8.80;99.90
24103;DHT22;12278;53.058;9.028;2023-12-29T17:37:28;8.80;99.90
24103;DHT22;12278;53.058;9.028;2023-12-29T17:41:32;8.80;99.90
24103;DHT22;12278;53.058;9.028;2023-12-29T17:45:32;8.80;99.90
24103;DHT22;12278;53.058;9.028;2023-12-29T17:49:33;8.80;99.90
24103;DHT22;12278;53.058;9.028;2023-12-29T17:53:37;8.80;99.90
24103;DHT22;12278;53.058;9.028;2023-12-29T17:57:38;8.80;99.90
24103;DHT22;12278;53.058;9.028;2023-12-29T18:01:39;8.90;99.90
24103;DHT22;12278;53.058;9.028;2023-12-29T18:05:40;9.00;99.90
24103;DHT22;12278;53.058;9.028;2023-12-29T18:09:41;9.00;99.90
24103;DHT22;12278;53.058;9.028;2023-12-29T18:13:41;9.00;99.90
24103;DHT22;12278;53.058;9.028;2023-12-29T18:17:42;9.00;99.90
24103;DHT22;12278;53.058;9.028;2023-12-29T18:21:43;9.10;99.90
24103;DHT22;12278;53.058;9.028;2023-12-29T18:25:44;9.00;99.90
24103;DHT22;12278;53.058;9.028;2023-12-29T18:29:44;9.10;99.90
24103;DHT22;12278;53.058;9.028;2023-12-29T18:33:45;9.10;99.90
24103;DHT22;12278;53.058;9.028;2023-12-29T18:37:46;9.10;99.90
24103;DHT22;12278;53.058;9.028;2023-12-29T18:41:46;9.10;99.90
24103;DHT22;12278;53.058;9.028;2023-12-29T18:45:47;9.10;99.90
24103;DHT22;12278;53.058;9.028;2023-12-29T18:49:49;9.20;99.90
24103;DHT22;12278;53.058;9.028;2023-12-29T18:53:50;9.20;99.90
24103;DHT22;12278;53.058;9.028;2023-12-29T18:57:51;9.10;99.90
24103;DHT22;12278;53.058;9.028;2023-12-29T19:01:51;9.00;99.90
24103;DHT22;12278;53.058;9.028;2023-12-29T19:05:52;8.90;99.90
24103;DHT22;12278;53.058;9.028;2023-12-29T19:09:53;8.60;99.90
24103;DHT22;12278;53.058;9.028;2023-12-29T19:13:54;8.20;99.90
24103;DHT22;12278;53.058;9.028;2023-12-29T19:17:54;7.90;99.90
24103;DHT22;12278;53.058;9.028;2023-12-29T19:21:55;7.70;99.90
24103;DHT22;12278;53.058;9.028;2023-12-29T19:25:57;7.40;99.90
24103;DHT22;12278;53.058;9.028;2023-12-29T19:29:57;7.30;99.90
24103;DHT22;12278;53.058;9.028;2023-12-29T19:33:58;7.10;99.90
24103;DHT22;12278;53.058;9.028;2023-12-29T19:37:59;7.00;99.90
24103;DHT22;12278;53.058;9.028;2023-12-29T19:41:59;7.00;99.90
24103;DHT22;12278;53.058;9.028;2023-12-29T19:46:03;7.00;99.90
24103;DHT22;12278;53.058;9.028;2023-12-29T19:50:04;7.00;99.90
24103;DHT22;12278;53.058;9.028;2023-12-29T19:54:09;6.90;99.90
24103;DHT22;12278;53.058;9.028;2023-12-29T19:58:12;6.90;99.90
24103;DHT22;12278;53.058;9.028;2023-12-29T20:02:13;6.80;99.90
24103;DHT22;12278;53.058;9.028;2023-12-29T20:06:21;6.80;99.90
24103;DHT22;12278;53.058;9.028;2023-12-29T20:10:22;6.70;99.90
24103;DHT22;12278;53.058;9.028;2023-12-29T20:14:23;6.70;99.90
24103;DHT22;12278;53.058;9.028;2023-12-29T20:18:23;6.70;99.90
24103;DHT22;12278;53.058;9.028;2023-12-29T20:22:24;6.60;99.90
24103;DHT22;12278;53.058;9.028;2023-12-29T20:26:27;6.70;99.90
24103;DHT22;12278;53.058;9.028;2023-12-29T20:30:28;6.60;99.90
24103;DHT22;12278;53.058;9.028;2023-12-29T20:34:28;6.60;99.90
24103;DHT22;12278;53.058;9.028;2023-12-29T20:38:29;6.50;99.90
24103;DHT22;12278;53.058;9.028;2023-12-29T20:42:30;6.60;99.90
24103;DHT22;12278;53.058;9.028;2023-12-29T20:46:30;6.60;99.90
24103;DHT22;12278;53.058;9.028;2023-12-29T20:50:31;6.50;99.90
24103;DHT22;12278;53.058;9.028;2023-12-29T20:54:32;6.60;99.90
24103;DHT22;12278;53.058;9.028;2023-12-29T20:58:36;6.50;99.90
24103;DHT22;12278;53.058;9.028;2023-12-29T21:02:37;6.50;99.90
24103;DHT22;12278;53.058;9.028;2023-12-29T21:06:38;6.50;99.90
24103;DHT22;12278;53.058;9.028;2023-12-29T21:10:38;6.50;99.90
24103;DHT22;12278;53.058;9.028;2023-12-29T21:14:39;6.50;99.90
24103;DHT22;12278;53.058;9.028;2023-12-29T21:18:40;6.50;99.90
24103;DHT22;12278;53.058;9.028;2023-12-29T21:22:41;6.50;99.90
24103;DHT22;12278;53.058;9.028;2023-12-29T21:26:44;6.50;99.90
24103;DHT22;12278;53.058;9.028;2023-12-29T21:30:45;6.40;99.90
24103;DHT22;12278;53.058;9.028;2023-12-29T21:34:46;6.40;99.90
24103;DHT22;12278;53.058;9.028;2023-12-29T21:38:47;6.30;99.90
24103;DHT22;12278;53.058;9.028;2023-12-29T21:42:48;6.30;99.90
24103;DHT22;12278;53.058;9.028;2023-12-29T21:46:49;6.20;99.90
24103;DHT22;12278;53.058;9.028;2023-12-29T21:50:49;6.30;99.90
24103;DHT22;12278;53.058;9.028;2023-12-29T21:54:50;6.30;99.90
24103;DHT22;12278;53.058;9.028;2023-12-29T21:58:50;6.20;99.90
24103;DHT22;12278;53.058;9.028;2023-12-29T22:02:52;6.20;99.90
24103;DHT22;12278;53.058;9.028;2023-12-29T22:06:52;6.30;99.90
24103;DHT22;12278;53.058;9.028;2023-12-29T22:10:53;6.30;99.90
24103;DHT22;12278;53.058;9.028;2023-12-29T22:14:54;6.30;99.90
24103;DHT22;12278;53.058;9.028;2023-12-29T22:18:56;6.30;99.90
24103;DHT22;12278;53.058;9.028;2023-12-29T22:22:57;6.40;99.90
24103;DHT22;12278;53.058;9.028;2023-12-29T22:26:57;6.40;99.90
24103;DHT22;12278;53.058;9.028;2023-12-29T22:30:59;6.40;99.90
24103;DHT22;12278;53.058;9.028;2023-12-29T22:35:00;6.40;99.90
24103;DHT22;12278;53.058;9.028;2023-12-29T22:39:01;6.40;99.90
24103;DHT22;12278;53.058;9.028;2023-12-29T22:43:01;6.40;99.90
24103;DHT22;12278;53.058;9.028;2023-12-29T22:47:02;6.30;99.90
24103;DHT22;12278;53.058;9.028;2023-12-29T22:51:03;6.30;99.90
24103;DHT22;12278;53.058;9.028;2023-12-29T22:55:07;6.30;99.90
24103;DHT22;12278;53.058;9.028;2023-12-29T22:59:08;6.30;99.90
24103;DHT22;12278;53.058;9.028;2023-12-29T23:03:08;6.30;99.90
24103;DHT22;12278;53.058;9.028;2023-12-29T23:07:09;6.20;99.90
24103;DHT22;12278;53.058;9.028;2023-12-29T23:11:10;6.20;99.90
24103;DHT22;12278;53.058;9.028;2023-12-29T23:15:10;6.20;99.90
24103;DHT22;12278;53.058;9.028;2023-12-29T23:19:12;6.20;99.90
24103;DHT22;12278;53.058;9.028;2023-12-29T23:23:13;6.30;99.90
24103;DHT22;12278;53.058;9.028;2023-12-29T23:27:14;6.30;99.90
24103;DHT22;12278;53.058;9.028;2023-12-29T23:31:14;6.30;99.90
24103;DHT22;12278;53.058;9.028;2023-12-29T23:35:17;6.30;99.90
24103;DHT22;12278;53.058;9.028;2023-12-29T23:39:18;6.30;99.90
24103;DHT22;12278;53.058;9.028;2023-12-29T23:43:19;6.40;99.90
24103;DHT22;12278;53.058;9.028;2023-12-29T23:47:19;6.40;99.90
24103;DHT22;12278;53.058;9.028;2023-12-29T23:51:20;6.40;99.90
24103;DHT22;12278;53.058;9.028;2023-12-29T23:55:21;6.40;99.90
24103;DHT22;12278;53.058;9.028;2023-12-29T23:59:23;6.50;99.90
